Time;durP1;ratioP1;P1;durP2;ratioP2;P2;SDS_P1;SDS_P2;PMS_P1;PMS_P2;Temp;Humidity;BMP_temperature;BMP_pressure;BME280_temperature;BME280_humidity;BME280_pressure;Samples;Min_cycle;Max_cycle;Signal;HPM_P1;HPM_P2
2022/03/10 00:02:09;;;;;;;45.28;25.45;;;;;;;;;;4331121;33;20020;-81
2022/03/10 00:04:34;;;;;;;49.60;28.00;;;;;;;;;;4332494;33;20036;-80
2022/03/10 00:07:02;;;;;;;46.75;24.92;;;;;;;;;;4332348;33;20365;-81
2022/03/10 00:09:27;;;;;;;45.05;24.48;;;;;;;;;;4332805;33;20031;-82
2022/03/10 00:11:52;;;;;;;50.67;26.40;;;;;;;;;;4330560;33;20019;-81
2022/03/10 00:14:17;;;;;;;;;;;;;;;;;;4332553;33;20031;-80
2022/03/10 00:16:42;;;;;;;46.83;24.90;;;;;;;;;;4332892;33;20321;-80
2022/03/10 00:19:08;;;;;;;;;;;;;;;;;;4345948;33;20050;-80
2022/03/10 00:21:33;;;;;;;43.90;24.30;;;;;;;;;;4345924;33;20317;-79
2022/03/10 00:23:58;;;;;;;;;;;;;;;;;;4346566;33;20055;-80
2022/03/10 00:26:23;;;;;;;45.38;24.23;;;;;;;;;;4332240;33;20331;-80
2022/03/10 00:28:48;;;;;;;;;;;;;;;;;;4331856;33;20619;-81
2022/03/10 00:31:14;;;;;;;51.65;26.12;;;;;;;;;;4333677;33;19935;-80
2022/03/10 00:33:39;;;;;;;;;;;;;;;;;;4340268;33;20031;-80
2022/03/10 00:36:06;;;;;;;50.80;26.27;;;;;;;;;;4345505;33;19949;-80
2022/03/10 00:38:31;;;;;;;47.62;25.90;;;;;;;;;;4344617;33;20116;-80
2022/03/10 00:40:58;;;;;;;50.53;27.27;;;;;;;;;;4345103;33;20041;-81
2022/03/10 00:43:23;;;;;;;46.10;26.65;;;;;;;;;;4343785;33;20109;-81
2022/03/10 00:45:48;;;;;;;50.25;25.25;;;;;;;;;;4337617;33;20059;-81
2022/03/10 00:48:13;;;;;;;;;;;;;;;;;;4319009;33;20028;-81
2022/03/10 00:50:39;;;;;;;51.22;26.75;;;;;;;;;;4317106;33;19974;-81
2022/03/10 00:53:04;;;;;;;;;;;;;;;;;;4330549;33;20020;-81
2022/03/10 00:55:29;;;;;;;54.53;28.17;;;;;;;;;;4317054;33;20296;-80
2022/03/10 00:57:54;;;;;;;44.35;25.45;;;;;;;;;;4329654;33;20373;-80
2022/03/10 01:00:19;;;;;;;;;;;;;;;;;;4337025;33;20016;-81
2022/03/10 01:02:45;;;;;;;46.08;23.77;;;;;;;;;;4346239;33;19942;-80
2022/03/10 01:05:11;;;;;;;48.05;25.83;;;;;;;;;;4344236;33;20132;-80
2022/03/10 01:07:36;;;;;;;;;;;;;;;;;;4344822;33;20367;-80
2022/03/10 01:10:02;;;;;;;44.92;24.37;;;;;;;;;;4331308;33;19938;-80
2022/03/10 01:12:27;;;;;;;50.53;24.77;;;;;;;;;;4345339;33;20028;-80
2022/03/10 01:14:53;;;;;;;54.35;26.62;;;;;;;;;;4344984;33;20053;-80
2022/03/10 01:17:18;;;;;;;;;;;;;;;;;;4332819;33;20055;-80
2022/03/10 01:19:44;;;;;;;46.75;25.05;;;;;;;;;;4331341;33;19939;-80
2022/03/10 01:22:09;;;;;;;;;;;;;;;;;;4332714;33;20042;-80
2022/03/10 01:24:34;;;;;;;48.87;26.58;;;;;;;;;;4337852;33;19939;-80
2022/03/10 01:27:00;;;;;;;;;;;;;;;;;;4341276;33;20112;-80
2022/03/10 01:29:25;;;;;;;43.92;25.62;;;;;;;;;;4330246;33;20226;-80
2022/03/10 01:31:50;;;;;;;;;;;;;;;;;;4331938;33;20020;-80
2022/03/10 01:34:15;;;;;;;45.45;24.58;;;;;;;;;;4344942;33;20265;-80
2022/03/10 01:36:40;;;;;;;;;;;;;;;;;;4344336;33;20028;-80
2022/03/10 01:39:06;;;;;;;43.47;24.95;;;;;;;;;;4345110;33;19946;-80
2022/03/10 01:41:32;;;;;;;;;;;;;;;;;;4344129;33;20098;-80
2022/03/10 01:44:01;;;;;;;43.33;25.70;;;;;;;;;;4344878;33;19947;-81
2022/03/10 01:46:26;;;;;;;42.03;25.80;;;;;;;;;;4343915;33;20027;-81
2022/03/10 01:48:52;;;;;;;49.88;25.52;;;;;;;;;;4317461;33;20066;-80
2022/03/10 01:51:17;;;;;;;;;;;;;;;;;;4333185;33;20035;-81
2022/03/10 01:53:43;;;;;;;49.10;26.02;;;;;;;;;;4333260;33;19978;-81
2022/03/10 01:56:08;;;;;;;;;;;;;;;;;;4333187;33;20155;-80
2022/03/10 01:58:33;;;;;;;47.83;26.45;;;;;;;;;;4319023;33;19935;-80
2022/03/10 02:00:58;;;;;;;;;;;;;;;;;;4343490;33;20077;-80
2022/03/10 02:03:24;;;;;;;46.50;25.55;;;;;;;;;;4333492;33;19947;-79
2022/03/10 02:05:49;;;;;;;;;;;;;;;;;;4336364;33;20027;-82
2022/03/10 02:10:58;;;;;;;47.92;25.77;;;;;;;;;;4348227;33;20070;-81
2022/03/10 02:13:23;;;;;;;;;;;;;;;;;;4347816;33;20028;-79
2022/03/10 02:18:32;;;;;;;52.72;27.10;;;;;;;;;;4334916;33;20168;-79
2022/03/10 02:20:57;;;;;;;;;;;;;;;;;;4331668;33;20024;-81
2022/03/10 02:23:23;;;;;;;48.08;27.70;;;;;;;;;;4332038;33;20026;-81
2022/03/10 02:25:48;;;;;;;;;;;;;;;;;;4342008;33;20142;-81
2022/03/10 02:28:13;;;;;;;47.83;26.45;;;;;;;;;;4333220;33;19946;-79
2022/03/10 02:30:38;;;;;;;;;;;;;;;;;;4346178;33;20133;-80
2022/03/10 02:33:04;;;;;;;47.78;26.10;;;;;;;;;;4322724;33;19995;-80
2022/03/10 02:35:29;;;;;;;;;;;;;;;;;;4343883;33;20109;-80
2022/03/10 02:37:54;;;;;;;46.08;26.25;;;;;;;;;;4337834;33;19997;-79
2022/03/10 02:40:19;;;;;;;;;;;;;;;;;;4318788;33;20016;-80
2022/03/10 02:42:44;;;;;;;48.72;27.30;;;;;;;;;;4318425;33;19947;-80
2022/03/10 02:45:09;;;;;;;;;;;;;;;;;;4332145;33;20032;-80
2022/03/10 02:47:35;;;;;;;54.03;27.60;;;;;;;;;;4333970;33;19946;-80
2022/03/10 02:50:03;;;;;;;;;;;;;;;;;;4346852;33;20155;-80
2022/03/10 02:52:28;;;;;;;;;;;;;;;;;;4347532;33;20025;-80
2022/03/10 02:54:53;;;;;;;53.33;27.67;;;;;;;;;;4346112;33;19954;-80
2022/03/10 02:57:18;;;;;;;;;;;;;;;;;;4347249;33;20078;-79
2022/03/10 02:59:43;;;;;;;53.33;26.50;;;;;;;;;;4350349;32;19938;-79
2022/03/10 03:02:08;;;;;;;;;;;;;;;;;;4344937;32;20171;-79
2022/03/10 03:04:34;;;;;;;47.35;26.02;;;;;;;;;;4331608;33;19954;-79
2022/03/10 03:06:59;;;;;;;;;;;;;;;;;;4342676;33;20092;-79
2022/03/10 03:09:24;;;;;;;49.28;27.37;;;;;;;;;;4349399;32;19973;-78
2022/03/10 03:11:49;;;;;;;51.42;26.90;;;;;;;;;;4346684;32;20565;-79
2022/03/10 03:14:14;;;;;;;;;;;;;;;;;;4346845;33;20453;-81
2022/03/10 03:16:40;;;;;;;49.22;28.25;;;;;;;;;;4334685;33;19981;-79
2022/03/10 03:19:05;;;;;;;;;;;;;;;;;;4346119;33;20121;-79
2022/03/10 03:21:31;;;;;;;51.42;28.33;;;;;;;;;;4346547;33;19989;-78
2022/03/10 03:23:56;;;;;;;;;;;;;;;;;;4345497;33;20213;-80
2022/03/10 03:26:21;;;;;;;46.86;27.04;;;;;;;;;;4332433;33;19997;-78
2022/03/10 03:28:46;;;;;;;;;;;;;;;;;;4345594;33;20047;-79
2022/03/10 03:31:11;;;;;;;48.83;27.02;;;;;;;;;;4345930;33;19939;-79
2022/03/10 03:33:36;;;;;;;;;;;;;;;;;;4346120;32;20020;-79
2022/03/10 03:36:02;;;;;;;50.03;27.62;;;;;;;;;;4334240;33;19969;-79
2022/03/10 03:38:27;;;;;;;;;;;;;;;;;;4333183;33;20050;-79
2022/03/10 03:40:52;;;;;;;43.78;26.33;;;;;;;;;;4345853;33;19939;-80
2022/03/10 03:43:17;;;;;;;;;;;;;;;;;;4332407;33;20027;-80
2022/03/10 03:45:42;;;;;;;51.10;26.42;;;;;;;;;;4332001;33;19954;-79
2022/03/10 03:48:07;;;;;;;;;;;;;;;;;;4332745;33;20046;-79
2022/03/10 03:50:32;;;;;;;52.92;25.92;;;;;;;;;;4332396;33;19973;-80
2022/03/10 03:52:58;;;;;;;;;;;;;;;;;;4346323;33;20212;-80
2022/03/10 03:55:23;;;;;;;50.65;25.58;;;;;;;;;;4332621;33;19998;-79
2022/03/10 03:57:48;;;;;;;;;;;;;;;;;;4344589;33;20063;-79
2022/03/10 04:00:15;;;;;;;52.00;27.25;;;;;;;;;;4338846;33;20351;-79
2022/03/10 04:02:41;;;;;;;47.22;26.50;;;;;;;;;;4342898;33;20051;-79
2022/03/10 04:05:06;;;;;;;;;;;;;;;;;;4335722;33;20040;-79
2022/03/10 04:07:31;;;;;;;50.53;27.23;;;;;;;;;;4338438;33;19947;-79
2022/03/10 04:09:56;;;;;;;;;;;;;;;;;;4332168;33;20016;-79
2022/03/10 04:12:22;;;;;;;58.28;26.45;;;;;;;;;;4319472;33;20306;-79
2022/03/10 04:14:47;;;;;;;;;;;;;;;;;;4330012;33;20020;-79
2022/03/10 04:17:12;;;;;;;48.03;24.73;;;;;;;;;;4330975;33;19935;-81
2022/03/10 04:19:37;;;;;;;;;;;;;;;;;;4343667;33;20120;-79
2022/03/10 04:22:03;;;;;;;46.95;27.25;;;;;;;;;;4318569;33;19975;-78
2022/03/10 04:24:28;;;;;;;;;;;;;;;;;;4330740;33;20104;-79
2022/03/10 04:26:53;;;;;;;48.58;26.87;;;;;;;;;;4330473;33;19944;-79
2022/03/10 04:29:18;;;;;;;;;;;;;;;;;;4318764;33;20432;-79
2022/03/10 04:31:43;;;;;;;45.95;27.13;;;;;;;;;;4316569;33;19950;-77
2022/03/10 04:34:09;;;;;;;;;;;;;;;;;;4341696;33;20055;-80
2022/03/10 04:36:34;;;;;;;49.03;25.40;;;;;;;;;;4343402;33;19963;-80
2022/03/10 04:38:59;;;;;;;;;;;;;;;;;;4343480;33;20127;-79
2022/03/10 04:41:24;;;;;;;49.45;26.85;;;;;;;;;;4330719;33;19999;-81
2022/03/10 04:43:49;;;;;;;;;;;;;;;;;;4331314;33;20024;-79
2022/03/10 04:46:15;;;;;;;54.88;26.67;;;;;;;;;;4316605;33;19998;-79
2022/03/10 04:48:40;;;;;;;;;;;;;;;;;;4345825;33;20131;-79
2022/03/10 04:51:05;;;;;;;50.83;27.42;;;;;;;;;;4345837;33;19939;-79
2022/03/10 04:53:30;;;;;;;;;;;;;;;;;;4331791;33;20102;-78
2022/03/10 04:55:55;;;;;;;52.80;28.08;;;;;;;;;;4331845;33;19939;-80
2022/03/10 04:58:21;;;;;;;;;;;;;;;;;;4345532;33;20158;-79
2022/03/10 05:00:46;;;;;;;50.38;27.65;;;;;;;;;;4331739;33;19936;-79
2022/03/10 05:03:11;;;;;;;;;;;;;;;;;;4345101;33;20031;-78
2022/03/10 05:05:37;;;;;;;51.55;27.40;;;;;;;;;;4344734;33;20010;-76
2022/03/10 05:08:02;;;;;;;;;;;;;;;;;;4343829;33;20155;-79
2022/03/10 05:10:28;;;;;;;52.60;27.52;;;;;;;;;;4341478;33;19998;-80
2022/03/10 05:12:53;;;;;;;;;;;;;;;;;;4325611;33;20063;-79
2022/03/10 05:15:19;;;;;;;47.53;27.13;;;;;;;;;;4350374;33;19969;-77
2022/03/10 05:17:44;;;;;;;53.78;28.62;;;;;;;;;;4345003;33;20032;-78
2022/03/10 05:20:09;;;;;;;;;;;;;;;;;;4345516;33;20142;-78
2022/03/10 05:23:01;;;;;;;45.33;27.55;;;;;;;;;;4344682;33;19946;-79
2022/03/10 05:25:31;;;;;;;46.88;27.52;;;;;;;;;;4345401;33;20089;-79
2022/03/10 05:27:56;;;;;;;46.40;28.38;;;;;;;;;;4347769;33;20036;-79
2022/03/10 05:30:21;;;;;;;;;;;;;;;;;;4348166;33;20107;-78
2022/03/10 05:32:47;;;;;;;50.55;26.95;;;;;;;;;;4334248;33;19939;-80
2022/03/10 05:35:14;;;;;;;;;;;;;;;;;;4350616;33;20140;-78
2022/03/10 05:37:40;;;;;;;53.45;28.30;;;;;;;;;;4348356;33;19966;-79
2022/03/10 05:40:06;;;;;;;50.75;28.45;;;;;;;;;;4346463;33;20485;-79
2022/03/10 05:42:32;;;;;;;;;;;;;;;;;;4347459;33;20070;-78
2022/03/10 05:44:57;;;;;;;56.50;27.33;;;;;;;;;;4342338;33;19943;-78
2022/03/10 05:47:22;;;;;;;;;;;;;;;;;;4331984;33;20028;-78
2022/03/10 05:49:49;;;;;;;48.00;28.15;;;;;;;;;;4332825;33;19943;-79
2022/03/10 05:52:14;;;;;;;54.53;28.77;;;;;;;;;;4343324;33;20024;-79
2022/03/10 05:54:39;;;;;;;;;;;;;;;;;;4334123;33;20062;-79
2022/03/10 05:57:05;;;;;;;63.90;28.00;;;;;;;;;;4332649;33;19943;-77
2022/03/10 05:59:30;;;;;;;;;;;;;;;;;;4332610;33;20125;-79
2022/03/10 06:01:55;;;;;;;52.22;27.10;;;;;;;;;;4343863;33;20042;-79
2022/03/10 06:04:20;;;;;;;;;;;;;;;;;;4334527;33;20503;-79
2022/03/10 06:06:45;;;;;;;55.67;28.73;;;;;;;;;;4334190;33;19998;-79
2022/03/10 06:09:10;;;;;;;;;;;;;;;;;;4332146;33;20438;-79
2022/03/10 06:11:35;;;;;;;53.47;28.73;;;;;;;;;;4334756;33;19950;-78
2022/03/10 06:14:01;;;;;;;;;;;;;;;;;;4346539;33;20031;-79
2022/03/10 06:16:26;;;;;;;55.85;28.20;;;;;;;;;;4333891;33;20117;-79
2022/03/10 06:18:51;;;;;;;;;;;;;;;;;;4347696;33;20147;-78
2022/03/10 06:21:16;;;;;;;52.15;26.55;;;;;;;;;;4334119;33;19939;-77
2022/03/10 06:23:41;;;;;;;;;;;;;;;;;;4333920;33;20113;-80
2022/03/10 06:26:06;;;;;;;48.87;27.75;;;;;;;;;;4333804;33;20298;-78
2022/03/10 06:28:32;;;;;;;;;;;;;;;;;;4336159;33;20144;-79
2022/03/10 06:30:57;;;;;;;50.53;26.12;;;;;;;;;;4333599;33;19949;-79
2022/03/10 06:33:22;;;;;;;;;;;;;;;;;;4332704;33;20032;-77
2022/03/10 06:35:48;;;;;;;54.33;28.10;;;;;;;;;;4345938;33;19958;-78
2022/03/10 06:38:13;;;;;;;;;;;;;;;;;;4339902;33;20423;-77
2022/03/10 06:40:38;;;;;;;57.55;28.77;;;;;;;;;;4332089;33;19943;-78
2022/03/10 06:43:03;;;;;;;;;;;;;;;;;;4333556;33;20112;-77
2022/03/10 06:45:29;;;;;;;51.55;27.27;;;;;;;;;;4333565;33;19970;-78
2022/03/10 06:47:54;;;;;;;;;;;;;;;;;;4342634;33;20099;-77
2022/03/10 06:50:19;;;;;;;51.78;27.05;;;;;;;;;;4345784;33;19974;-77
2022/03/10 06:52:44;;;;;;;;;;;;;;;;;;4342899;32;20075;-77
2022/03/10 06:55:09;;;;;;;52.97;26.45;;;;;;;;;;4342931;33;20008;-79
2022/03/10 06:57:35;;;;;;;;;;;;;;;;;;4343584;33;20125;-80
2022/03/10 07:00:00;;;;;;;52.15;25.85;;;;;;;;;;4332072;33;19967;-77
2022/03/10 07:02:25;;;;;;;;;;;;;;;;;;4343308;33;20121;-78
2022/03/10 07:04:50;;;;;;;45.72;25.58;;;;;;;;;;4342377;33;19991;-78
2022/03/10 07:07:16;;;;;;;;;;;;;;;;;;4343970;33;20019;-77
2022/03/10 07:09:41;;;;;;;49.28;25.20;;;;;;;;;;4346002;33;19973;-80
2022/03/10 07:12:07;;;;;;;;;;;;;;;;;;4344963;33;20096;-79
2022/03/10 07:14:32;;;;;;;45.17;24.63;;;;;;;;;;4332564;33;19953;-78
2022/03/10 07:16:57;;;;;;;55.00;28.10;;;;;;;;;;4344199;33;20495;-78
2022/03/10 07:19:22;;;;;;;64.62;27.62;;;;;;;;;;4334033;33;20113;-78
2022/03/10 07:21:47;;;;;;;;;;;;;;;;;;4320098;33;20031;-79
2022/03/10 07:24:13;;;;;;;54.20;27.62;;;;;;;;;;4330841;33;19935;-80
2022/03/10 07:26:38;;;;;;;;;;;;;;;;;;4342380;33;20057;-77
2022/03/10 07:29:04;;;;;;;47.13;25.00;;;;;;;;;;4340665;33;19954;-78
2022/03/10 07:31:29;;;;;;;;;;;;;;;;;;4331198;33;20413;-79
2022/03/10 07:33:54;;;;;;;46.50;25.73;;;;;;;;;;4343795;33;19960;-78
2022/03/10 07:36:19;;;;;;;;;;;;;;;;;;4346550;33;20162;-78
2022/03/10 07:38:45;;;;;;;52.10;24.85;;;;;;;;;;4345412;33;19949;-78
2022/03/10 07:41:10;;;;;;;;;;;;;;;;;;4345568;33;20024;-80
2022/03/10 07:43:35;;;;;;;46.32;25.58;;;;;;;;;;4345750;33;19935;-79
2022/03/10 07:46:04;;;;;;;;;;;;;;;;;;4341865;33;20369;-80
2022/03/10 07:48:29;;;;;;;58.03;27.40;;;;;;;;;;4331877;33;20022;-80
2022/03/10 07:50:55;;;;;;;43.97;25.37;;;;;;;;;;4352947;32;20082;-79
2022/03/10 07:53:20;;;;;;;;;;;;;;;;;;4345532;32;20039;-78
2022/03/10 07:55:45;;;;;;;48.58;26.92;;;;;;;;;;4345813;33;19986;-80
2022/03/10 07:58:11;;;;;;;;;;;;;;;;;;4344587;33;20028;-78
2022/03/10 08:00:36;;;;;;;49.08;27.13;;;;;;;;;;4338589;33;20002;-78
2022/03/10 08:03:01;;;;;;;;;;;;;;;;;;4346716;33;20058;-80
2022/03/10 08:05:26;;;;;;;47.17;25.08;;;;;;;;;;4332180;33;19935;-80
2022/03/10 08:07:52;;;;;;;;;;;;;;;;;;4344504;33;20102;-80
2022/03/10 08:10:17;;;;;;;47.17;25.30;;;;;;;;;;4345421;33;19939;-80
2022/03/10 08:12:42;;;;;;;;;;;;;;;;;;4332663;33;20039;-79
2022/03/10 08:15:07;;;;;;;54.13;26.87;;;;;;;;;;4331877;33;19939;-81
2022/03/10 08:17:33;;;;;;;;;;;;;;;;;;4332238;33;20139;-80
2022/03/10 08:19:58;;;;;;;51.92;27.13;;;;;;;;;;4345141;33;19954;-79
2022/03/10 08:22:24;;;;;;;;;;;;;;;;;;4332887;33;20023;-79
2022/03/10 08:24:50;;;;;;;49.53;26.33;;;;;;;;;;4345266;33;20324;-80
2022/03/10 08:27:15;;;;;;;51.33;27.87;;;;;;;;;;4331899;33;20139;-80
2022/03/10 08:29:41;;;;;;;;;;;;;;;;;;4345528;33;20110;-78
2022/03/10 08:32:17;;;;;;;50.15;26.85;;;;;;;;;;4331933;33;19954;-81
2022/03/10 08:34:42;;;;;;;43.65;25.92;;;;;;;;;;4341691;33;20007;-80
2022/03/10 08:37:07;;;;;;;;;;;;;;;;;;4345816;33;20040;-80
2022/03/10 08:39:32;;;;;;;51.03;26.65;;;;;;;;;;4345459;33;19981;-78
2022/03/10 08:41:59;;;;;;;;;;;;;;;;;;4344379;33;20452;-81
2022/03/10 08:44:28;;;;;;;51.45;26.30;;;;;;;;;;4332014;33;19932;-78
2022/03/10 08:46:58;;;;;;;42.70;25.70;;;;;;;;;;4332537;33;20361;-77
2022/03/10 08:49:23;;;;;;;46.13;26.33;;;;;;;;;;4337578;33;20027;-79
2022/03/10 08:51:50;;;;;;;46.20;25.48;;;;;;;;;;4336873;33;20393;-81
2022/03/10 08:54:15;;;;;;;43.17;24.95;;;;;;;;;;4343848;33;20039;-79
2022/03/10 08:56:40;;;;;;;50.25;25.77;;;;;;;;;;4331117;33;20024;-80
2022/03/10 08:59:05;;;;;;;;;;;;;;;;;;4332224;33;20021;-77
2022/03/10 09:01:31;;;;;;;40.25;24.25;;;;;;;;;;4333648;33;19946;-80
2022/03/10 09:03:56;;;;;;;43.30;25.37;;;;;;;;;;4347133;33;20487;-80
2022/03/10 09:06:22;;;;;;;;;;;;;;;;;;4335354;33;20015;-81
2022/03/10 09:08:48;;;;;;;50.47;26.50;;;;;;;;;;4349881;33;19977;-80
2022/03/10 09:11:14;;;;;;;49.55;25.80;;;;;;;;;;4348049;33;20325;-81
2022/03/10 09:13:43;;;;;;;43.08;25.88;;;;;;;;;;4334378;33;20425;-81
2022/03/10 09:16:08;;;;;;;53.50;27.90;;;;;;;;;;4347718;33;20027;-81
2022/03/10 09:18:34;;;;;;;47.87;25.93;;;;;;;;;;4349147;33;20020;-80
2022/03/10 09:20:59;;;;;;;;;;;;;;;;;;4346848;33;20581;-80
2022/03/10 09:23:24;;;;;;;46.83;25.73;;;;;;;;;;4348481;33;19975;-80
2022/03/10 09:25:49;;;;;;;;;;;;;;;;;;4335582;33;20056;-87
2022/03/10 09:28:16;;;;;;;45.65;25.98;;;;;;;;;;4335852;33;19953;-86
2022/03/10 09:30:44;;;;;;;44.47;24.87;;;;;;;;;;4353868;33;20124;-84
2022/03/10 09:33:15;;;;;;;49.15;26.17;;;;;;;;;;4347990;33;20055;-86
2022/03/10 09:35:40;;;;;;;44.08;23.62;;;;;;;;;;4348070;32;20071;-84
2022/03/10 09:38:05;;;;;;;43.15;25.80;;;;;;;;;;4347512;33;20016;-83
2022/03/10 09:40:30;;;;;;;;;;;;;;;;;;4335955;33;20032;-86
2022/03/10 09:42:59;;;;;;;52.88;28.35;;;;;;;;;;4349434;33;19966;-87
2022/03/10 09:45:29;;;;;;;41.90;25.02;;;;;;;;;;4347902;33;20506;-85
2022/03/10 09:47:55;;;;;;;41.35;25.88;;;;;;;;;;4348219;33;20020;-87
2022/03/10 09:50:20;;;;;;;;;;;;;;;;;;4347835;33;20046;-86
2022/03/10 09:52:49;;;;;;;46.15;24.02;;;;;;;;;;4349140;33;19973;-86
2022/03/10 09:55:23;;;;;;;40.67;24.17;;;;;;;;;;4348369;33;20522;-85
2022/03/10 09:57:49;;;;;;;39.17;22.55;;;;;;;;;;4348730;32;20440;-86
2022/03/10 10:00:14;;;;;;;;;;;;;;;;;;4350036;33;20023;-86
2022/03/10 10:02:51;;;;;;;47.17;25.17;;;;;;;;;;4335488;33;19971;-87
2022/03/10 10:05:41;;;;;;;42.92;24.55;;;;;;;;;;4349626;33;20178;-87
2022/03/10 10:08:17;;;;;;;36.65;22.73;;;;;;;;;;4349928;33;20043;-86
2022/03/10 10:10:43;;;;;;;40.60;24.27;;;;;;;;;;4348364;33;20039;-86
2022/03/10 10:13:08;;;;;;;;;;;;;;;;;;4336354;33;20065;-87
2022/03/10 10:15:40;;;;;;;42.58;24.10;;;;;;;;;;4336150;33;19984;-86
2022/03/10 10:18:15;;;;;;;40.50;24.75;;;;;;;;;;4348773;33;20054;-86
2022/03/10 10:20:52;;;;;;;41.58;24.92;;;;;;;;;;4348829;33;20354;-86
2022/03/10 10:23:47;;;;;;;41.65;25.35;;;;;;;;;;4345235;33;20031;-87
2022/03/10 10:26:25;;;;;;;;;;;;;;;;;;;;;
2022/03/10 10:28:51;;;;;;;37.33;23.55;;;;;;;;;;4349076;33;20063;-85
2022/03/10 10:31:17;;;;;;;;;;;;;;;;;;4348597;32;20020;-87
2022/03/10 10:34:17;;;;;;;40.12;24.23;;;;;;;;;;4336207;33;19962;-87
2022/03/10 10:36:46;;;;;;;38.72;23.23;;;;;;;;;;4332007;33;20027;-87
2022/03/10 10:39:18;;;;;;;39.15;24.12;;;;;;;;;;4348255;33;20083;-88
2022/03/10 10:41:55;;;;;;;42.15;24.77;;;;;;;;;;4348117;33;20059;-86
2022/03/10 10:44:26;;;;;;;42.62;24.60;;;;;;;;;;4349088;33;20012;-87
2022/03/10 10:46:57;;;;;;;34.80;23.17;;;;;;;;;;4348852;33;20074;-85
2022/03/10 10:49:25;;;;;;;39.45;24.27;;;;;;;;;;4336650;32;20027;-87
2022/03/10 10:51:58;;;;;;;40.30;24.30;;;;;;;;;;4337025;33;20042;-88
2022/03/10 10:54:33;;;;;;;43.40;24.27;;;;;;;;;;4338476;33;20020;-89
2022/03/10 10:57:05;;;;;;;37.13;23.42;;;;;;;;;;4350857;33;20084;-86
2022/03/10 10:59:50;;;;;;;47.62;25.83;;;;;;;;;;4350832;33;20098;-87
2022/03/10 11:02:21;;;;;;;43.65;23.62;;;;;;;;;;4350203;33;20427;-86
2022/03/10 11:04:49;;;;;;;35.00;23.00;;;;;;;;;;4350460;33;20024;-87
2022/03/10 11:07:41;;;;;;;38.78;23.33;;;;;;;;;;4335578;33;20070;-90
2022/03/10 11:10:16;;;;;;;38.88;25.48;;;;;;;;;;4336224;33;20011;-87
2022/03/10 11:12:44;;;;;;;38.70;22.62;;;;;;;;;;4335452;33;20017;-87
2022/03/10 11:15:23;;;;;;;36.38;23.30;;;;;;;;;;4343957;33;20040;-87
2022/03/10 11:17:49;;;;;;;39.05;24.27;;;;;;;;;;4337015;33;20016;-89
2022/03/10 11:20:17;;;;;;;38.25;22.60;;;;;;;;;;4338199;33;20046;-87
2022/03/10 11:22:43;;;;;;;38.25;23.35;;;;;;;;;;4337232;33;20050;-85
2022/03/10 11:25:31;;;;;;;30.80;21.87;;;;;;;;;;4341689;33;20020;-88
2022/03/10 11:28:06;;;;;;;36.75;24.15;;;;;;;;;;4347265;33;20083;-89
2022/03/10 11:30:33;;;;;;;41.43;24.83;;;;;;;;;;4335048;33;20008;-87
2022/03/10 11:33:03;;;;;;;35.55;23.02;;;;;;;;;;4337091;33;20098;-88
2022/03/10 11:35:37;;;;;;;38.00;24.70;;;;;;;;;;4351250;33;20042;-86
2022/03/10 11:38:05;;;;;;;38.80;22.83;;;;;;;;;;4351173;33;20024;-90
2022/03/10 11:41:06;;;;;;;;;;;;;;;;;;;;;
2022/03/10 11:43:59;;;;;;;34.50;22.17;;;;;;;;;;4339824;33;20377;-90
2022/03/10 11:46:36;;;;;;;38.30;21.70;;;;;;;;;;4346860;33;20433;-89
2022/03/10 11:49:04;;;;;;;37.97;22.55;;;;;;;;;;4358154;32;20061;-90
2022/03/10 11:52:03;;;;;;;33.92;22.85;;;;;;;;;;4346156;33;20086;-90
2022/03/10 11:54:32;;;;;;;27.83;20.45;;;;;;;;;;4357062;33;20063;-87
2022/03/10 11:57:16;;;;;;;37.40;22.62;;;;;;;;;;4359152;32;20005;-89
2022/03/10 12:00:15;;;;;;;27.33;20.30;;;;;;;;;;4346297;33;20078;-88
2022/03/10 12:03:00;;;;;;;32.78;22.60;;;;;;;;;;4347071;33;20025;-88
2022/03/10 12:09:06;;;;;;;31.10;20.23;;;;;;;;;;4347674;33;20058;-88
2022/03/10 12:12:08;;;;;;;;;;;;;;;;;;;;;
2022/03/10 12:14:45;;;;;;;29.80;21.70;;;;;;;;;;4341624;33;20008;-89
2022/03/10 12:17:36;;;;;;;33.28;22.90;;;;;;;;;;4345958;33;20032;-89
2022/03/10 12:20:29;;;;;;;31.23;21.17;;;;;;;;;;4347297;33;20027;-88
2022/03/10 12:23:33;;;;;;;;;;;;;;;;;;;;;
2022/03/10 12:26:37;;;;;;;;;;;;;;;;;;;;;
2022/03/10 12:32:14;;;;;;;43.13;22.40;;;;;;;;;;4331620;33;20051;-88
2022/03/10 12:35:16;;;;;;;32.08;20.88;;;;;;;;;;4340517;33;20114;-89
2022/03/10 12:41:14;;;;;;;26.75;19.75;;;;;;;;;;4332171;33;20051;-88
2022/03/10 12:44:19;;;;;;;37.63;21.50;;;;;;;;;;4353458;33;20028;-89
2022/03/10 12:47:05;;;;;;;37.80;21.27;;;;;;;;;;4321926;33;20036;-89
2022/03/10 12:53:13;;;;;;;30.80;18.25;;;;;;;;;;4330906;33;20354;-89
2022/03/10 12:56:27;;;;;;;31.90;19.92;;;;;;;;;;4345796;33;20072;-89
2022/03/10 12:59:34;;;;;;;30.60;19.70;;;;;;;;;;4333648;33;20032;-89
2022/03/10 13:02:24;;;;;;;31.55;19.75;;;;;;;;;;4303618;33;20146;-89
2022/03/10 13:05:31;;;;;;;29.23;18.87;;;;;;;;;;4303769;33;20036;-91
2022/03/10 13:08:34;;;;;;;;;;;;;;;;;;;;;
2022/03/10 13:11:17;;;;;;;;;;;;;;;;;;;;;
2022/03/10 13:14:11;;;;;;;27.92;18.67;;;;;;;;;;4337508;33;20102;-89
2022/03/10 13:19:54;;;;;;;;;;;;;;;;;;;;;
2022/03/10 13:22:20;;;;;;;30.85;19.67;;;;;;;;;;4321829;33;20075;-89
2022/03/10 13:24:52;;;;;;;33.13;19.67;;;;;;;;;;4320198;33;20456;-88
2022/03/10 13:27:34;;;;;;;;;;;;;;;;;;;;;
2022/03/10 13:30:02;;;;;;;29.50;16.90;;;;;;;;;;4333127;33;20040;-87
2022/03/10 13:32:30;;;;;;;29.73;17.62;;;;;;;;;;4320273;33;20128;-87
2022/03/10 13:34:58;;;;;;;28.08;18.55;;;;;;;;;;4325924;33;20427;-87
2022/03/10 13:37:33;;;;;;;27.15;16.77;;;;;;;;;;4320680;33;20159;-85
2022/03/10 13:40:08;;;;;;;27.20;18.35;;;;;;;;;;4319651;33;20096;-90
2022/03/10 13:42:39;;;;;;;25.65;18.20;;;;;;;;;;4320104;33;20054;-89
2022/03/10 13:45:07;;;;;;;35.42;19.85;;;;;;;;;;4321084;33;20044;-88
2022/03/10 13:48:08;;;;;;;25.58;18.20;;;;;;;;;;4337433;33;20028;-89
2022/03/10 13:50:39;;;;;;;27.70;18.27;;;;;;;;;;4338454;33;20020;-87
2022/03/10 13:53:08;;;;;;;27.83;19.15;;;;;;;;;;4325833;33;20035;-90
2022/03/10 13:55:53;;;;;;;27.83;18.55;;;;;;;;;;4337315;33;20398;-89
2022/03/10 13:58:19;;;;;;;25.23;18.02;;;;;;;;;;4342323;33;20178;-89
2022/03/10 14:00:52;;;;;;;33.30;20.20;;;;;;;;;;4328749;33;20012;-89
2022/03/10 14:03:25;;;;;;;31.20;19.75;;;;;;;;;;4338840;33;20015;-88
2022/03/10 14:05:51;;;;;;;35.13;21.75;;;;;;;;;;4344215;33;20055;-87
2022/03/10 14:08:18;;;;;;;33.25;21.87;;;;;;;;;;4332894;33;20012;-87
2022/03/10 14:11:05;;;;;;;33.15;22.05;;;;;;;;;;4332703;33;20114;-89
2022/03/10 14:13:35;;;;;;;28.45;20.17;;;;;;;;;;4346202;33;20162;-87
2022/03/10 14:16:05;;;;;;;31.48;21.12;;;;;;;;;;4347264;33;20035;-90
2022/03/10 14:18:30;;;;;;;32.28;20.90;;;;;;;;;;4346258;33;20083;-87
2022/03/10 14:21:04;;;;;;;27.73;20.62;;;;;;;;;;4345201;33;20028;-86
2022/03/10 14:23:38;;;;;;;32.15;21.23;;;;;;;;;;4343707;33;20440;-88
2022/03/10 14:26:15;;;;;;;35.80;21.73;;;;;;;;;;4344610;33;20033;-87
2022/03/10 14:28:42;;;;;;;27.75;19.80;;;;;;;;;;4327533;33;20094;-87
2022/03/10 14:31:13;;;;;;;35.58;21.95;;;;;;;;;;4329158;33;20097;-90
2022/03/10 14:33:53;;;;;;;39.92;21.17;;;;;;;;;;4330014;33;20012;-88
2022/03/10 14:36:21;;;;;;;38.22;22.05;;;;;;;;;;4329164;33;20060;-88
2022/03/10 14:38:50;;;;;;;32.05;22.27;;;;;;;;;;4328678;33;20024;-87
2022/03/10 14:41:23;;;;;;;31.05;20.73;;;;;;;;;;4319026;33;20068;-89
2022/03/10 14:43:50;;;;;;;26.67;20.42;;;;;;;;;;4334335;33;20124;-87
2022/03/10 14:46:21;;;;;;;29.52;21.33;;;;;;;;;;4333365;33;20063;-88
2022/03/10 14:48:46;;;;;;;28.77;21.27;;;;;;;;;;4333493;33;20032;-89
2022/03/10 14:51:12;;;;;;;29.35;22.25;;;;;;;;;;4334174;33;20095;-89
2022/03/10 14:53:40;;;;;;;34.05;22.62;;;;;;;;;;4333702;33;20082;-87
2022/03/10 14:56:06;;;;;;;32.58;22.13;;;;;;;;;;4330438;33;20015;-87
2022/03/10 14:58:34;;;;;;;36.78;21.95;;;;;;;;;;4318903;33;20006;-89
2022/03/10 15:00:59;;;;;;;31.98;23.12;;;;;;;;;;4319180;33;20005;-88
2022/03/10 15:03:36;;;;;;;35.63;25.67;;;;;;;;;;4318435;33;20017;-90
2022/03/10 15:06:02;;;;;;;34.67;23.17;;;;;;;;;;4318576;33;20029;-88
2022/03/10 15:08:32;;;;;;;35.08;22.45;;;;;;;;;;4332697;33;20055;-88
2022/03/10 15:11:06;;;;;;;33.67;23.23;;;;;;;;;;4333195;33;20021;-88
2022/03/10 15:13:31;;;;;;;31.90;20.67;;;;;;;;;;4333201;33;20043;-88
2022/03/10 15:15:59;;;;;;;30.75;22.10;;;;;;;;;;4321669;33;20020;-88
2022/03/10 15:18:25;;;;;;;26.75;20.73;;;;;;;;;;4333155;33;20009;-89
2022/03/10 15:21:01;;;;;;;30.20;22.15;;;;;;;;;;4333186;33;20110;-90
2022/03/10 15:23:27;;;;;;;30.92;22.10;;;;;;;;;;4330103;33;20067;-85
2022/03/10 15:26:01;;;;;;;50.58;23.48;;;;;;;;;;4332508;33;20032;-87
2022/03/10 15:28:28;;;;;;;46.03;24.40;;;;;;;;;;4336199;33;20047;-89
2022/03/10 15:30:54;;;;;;;35.75;25.12;;;;;;;;;;4346528;33;20039;-89
2022/03/10 15:33:37;;;;;;;37.25;23.52;;;;;;;;;;4357536;32;20008;-88
2022/03/10 15:36:09;;;;;;;42.10;25.45;;;;;;;;;;4344548;33;20027;-88
2022/03/10 15:38:48;;;;;;;35.28;23.08;;;;;;;;;;4349964;33;20051;-88